ACT        NSW        VIC        QLD        SA        WA        TAS        NT        INFO        CALC            by VK5ZD

  Atmospheric Gas Attenuation - ITU Rec 676-11   --------------- db/100km ---------------
Station Date Time Temp RH % AH g/m3 Dew Point Wind Direction Speed kph Gust kph Barometer mB Rainfall Since 9am 24GHz 47GHz 76GHz 122GHz 134GHz 241GHz
Alva Beach 27 12:30 26.1 72 17.63 20.7 17 24 1017 0 37.9 37.2 70.0 185.1 201.6 700.1
Amberley 27 12:30 23.9 15 3.24 -4.3 13 24 1019.1 0 8.0 16.4 18.3 47.1 30.8 102.1
Applethorpe 27 12:30 15.4 28 3.68 -3 13 22 1020.3 0 9.1 18.6 21.7 56.0 38.8 129.3
Archerfield 27 12:30 23.3 12 2.51 -7.7 9 22 1019.4 0 6.5 15.7 16.4 42.0 24.2 78.7
Ayr 27 12:30 31 20 6.4 5.4 15 24 1013.1 0 14.3 18.7 25.5 66.5 57.1 195.6
Ballera 27 12:30 20.8 21 3.8 -2.3 20 30 1022.4 0 9.2 17.7 20.8 53.6 37.6 125.7
Barcaldine 27 09:00 19.5 55 9.23 10.3 19 1013.1 0 20.6 25.3 39.4 103.5 99.3 342.3
Beaudesert Aws 27 12:30 24.8 18 4.1 -1.1 2 6 1019.1 0 9.7 17.3 20.6 53.2 38.6 129.8
Bedourie 27 09:00 17.6 34 5.1 1.8 13 1023.5 0 12.0 20.1 25.8 67.0 53.1 179.9
Beerburrum 27 12:30 23.6 18 3.83 -2.1 9 15 1013.1 0 9.2 17.0 19.9 51.5 36.3 121.7
Biloela 27 12:30 26.5 13 3.25 -4.1 11 15 1019.4 0 8.0 16.0 17.8 45.8 30.0 99.4
Birdsville 27 12:30 22.3 18 3.55 -3.1 17 28 1022 0 8.7 17.2 19.7 50.6 34.5 114.9
Blackall 27 12:30 24.1 14 3.06 -5 11 20 1019.3 0 7.6 16.2 17.8 45.7 29.1 95.9
Blackwater Airport 27 12:30 26.9 17 4.35 -0.2 4 9 1018.7 0 10.2 17.2 20.8 53.8 40.0 134.9
Boulia 27 09:00 18.9 35 5.67 3.1 13 1021.9 0 13.2 20.5 27.3 70.9 58.4 198.9
Bowen Airport Aws 27 12:30 29.2 42 12.2 15.3 15 20 1016.8 0 26.3 27.1 45.6 120.1 122.5 424.6
Brisbane 27 12:30 24.4 14 3.12 -4.8 4 11 1019.5 0 7.7 16.2 17.9 46.0 29.5 97.6
Brisbane Airport 27 12:30 21.8 19 3.65 -2.7 28 30 1019.7 0 8.9 17.3 20.0 51.6 35.6 118.7
Bundaberg 27 12:30 25.8 12 2.89 -5.7 13 20 1019.3 0 7.2 15.7 17.0 43.5 26.9 88.6
Burketown Airport 27 12:30 33.9 32 11.95 14.9 17 26 1014.5 0 25.5 25.3 42.1 110.8 112.5 390.1
Cairns 27 12:30 31.4 35 11.45 14.5 11 20 1015.9 0 24.6 25.3 41.7 109.7 110.4 382.5
Cairns Racecourse 27 12:30 29.7 42 12.53 15.4 15 28 1013.1 0 27.0 27.3 46.3 122.1 125.3 434.7
Camooweal 27 12:30 31.1 14 4.51 0.5 17 26 1017 0 10.4 16.6 20.2 52.3 39.5 133.4
Canungra (Defence) 27 12:30 23.1 19 3.93 -1.8 7 11 1013.1 0 9.4 17.2 20.3 52.6 37.5 125.8
Cape Flattery 27 12:30 29.1 59 17.04 20.5 32 41 1015.9 0 36.4 34.8 64.8 171.2 185.4 644.1
Cape Moreton 27 12:30 20.4 36 6.37 4.8 19 20 1020.2 0 14.6 21.1 29.1 75.8 65.0 222.1
Cardwell 27 09:00 26 76 18.5 21.5 9 1018.4 0 39.8 38.9 74.2 196.1 215.0 746.8
Carters Bore 27 12:30 27.9 13 3.52 -3 9 13 1013.1 0 8.5 15.9 18.1 46.7 31.7 105.8
Century Mine 27 12:30 33.4 13 4.73 1.3 15 26 1015.3 0 10.8 16.4 20.2 52.4 40.3 136.6
Charleville 27 12:30 20.9 15 2.73 -6.7 15 32 1020.8 0 7.0 16.4 17.6 44.9 27.0 88.5
Charters Towers 27 09:00 26.2 48 11.82 14.3 6 1018.6 0 25.7 27.5 45.9 121.0 122.6 424.8
Clermont Airport 27 12:30 27.5 13 3.44 -3.3 11 19 1017.8 0 8.3 16.0 18.1 46.6 31.3 104.2
Cloncurry 27 12:30 29.5 11 3.25 -4 20 32 1017.2 0 7.9 15.5 17.2 44.1 28.9 95.8
Coen Airport 27 12:30 31.3 42 13.66 16.9 22 35 1013.9 0 29.2 28.5 49.6 130.9 136.5 473.9
Cooktown 27 12:30 28.5 62 17.33 20.5 28 39 1016.1 0 37.1 35.6 66.5 175.9 190.9 663.3
Coolangatta 27 12:30 21.5 27 5.09 1.7 15 24 1020.1 0 11.9 19.2 24.5 63.6 50.4 170.8
Cowley Beach (Defence) 27 12:30 27 69 17.76 20.8 7 13 1013.1 0 38.1 36.8 69.6 183.9 200.5 696.6
Cunnamulla 27 09:00 16 39 5.31 2.2 7 1025.6 0 12.5 20.8 27.1 70.4 56.7 192.2
Dalby 27 12:30 20.9 13 2.37 -8.5 22 33 1020.5 0 6.3 16.0 16.5 42.2 23.6 76.4
Double Island Point 27 12:30 20.1 32 5.56 2.9 22 28 1019.8 0 12.9 20.1 26.5 68.8 56.3 191.5
Emerald 27 12:30 26.6 15 3.78 -2.1 11 19 1018.4 0 9.0 16.6 19.3 49.6 34.8 116.4
Gatton 27 12:30 24.6 16 3.6 -2.9 22 32 1013.1 0 8.7 16.6 19.0 49.1 33.7 112.6
Gayndah 27 12:30 25 13 2.99 -5.3 13 43 1019.6 0 7.5 16.0 17.4 44.7 28.1 92.7
Georgetown Airport 27 12:30 34.4 12 4.6 0.9 9 20 1013.9 0 10.5 16.1 19.6 50.8 38.7 130.9
Gladstone 27 12:30 26.6 31 7.8 8.1 17 28 1019.4 0 17.3 21.6 31.5 82.5 75.4 259.2
Gladstone Airport 27 12:30 25.2 29 6.75 5.9 19 28 1019.4 0 15.2 20.5 28.6 74.7 65.3 223.6
Gold Coast Seaway 27 12:30 19.9 35 6.01 4 26 28 1019.9 0 13.9 20.7 28.0 72.9 61.4 209.3
Greenbank (Defence) 27 12:30 24.5 11 2.46 -7.9 7 13 1013.1 0 6.4 15.3 15.9 40.7 23.3 75.6
Gympie 27 12:30 25.2 13 3.03 -5.1 9 24 1019.2 0 7.5 16.0 17.5 44.8 28.4 93.7
Hamilton Island 27 12:30 26 68 16.56 19.6 26 30 1017.8 0 35.7 35.3 65.4 172.8 186.4 647.3
Hervey Bay 27 12:30 23.9 22 4.76 0.9 17 24 1019.6 0 11.1 18.3 22.8 59.1 45.6 154.2
Horn Island 27 12:30 30.9 62 19.74 22.8 33 44 1013.1 0 41.9 38.6 74.7 197.7 218.4 759.5
Hughenden 27 12:30 32.6 10 3.49 -2.9 11 22 1015.6 0 8.3 15.2 17.2 44.1 29.9 99.6
Injune 27 09:00 17.5 27 4.03 -1.8 6 1023.2 0 9.8 18.7 22.4 57.7 41.6 139.4
Innisfail Aero 27 12:30 27.9 60 16.23 19.4 13 22 1016.6 0 34.8 33.9 62.4 164.8 177.1 615.1
Isisford 27 09:00 19.1 25 4.1 -1 13 1013.1 0 9.9 18.2 21.9 56.5 41.1 138.0
Julia Creek 27 12:30 32.5 10 3.47 -3 20 30 1016.6 0 8.3 15.2 17.1 44.1 29.7 99.2
Kingaroy 27 12:30 22.2 13 2.55 -7.5 9 11 1020.1 0 6.6 15.9 16.8 42.9 24.9 81.1
Kowanyama 27 12:30 35 27 10.68 13.2 17 28 1013 0 22.9 23.2 37.2 98.0 97.0 336.1
Lady Elliot Island 27 12:30 23.1 37 7.65 7.6 20 30 1020.1 0 17.2 22.3 32.4 84.8 77.0 264.7
Lake Julius 27 12:30 30.4 12 3.72 -2.2 11 24 1013.1 0 8.8 15.7 18.1 46.7 32.6 109.0
Lochington 27 12:30 25.5 13 3.08 -4.9 4 9 1018.5 0 7.6 16.0 17.5 45.0 28.7 94.9
Lockhart River 27 12:30 29.5 57 16.83 20.1 28 39 1014.6 0 35.9 34.2 63.5 167.8 181.3 630.1
Logan City 27 09:00 18.5 26 4.11 -1.4 4 1013.1 0 9.9 18.3 22.0 57.0 41.5 139.4
Longreach 27 12:30 26.9 14 3.58 -2.8 13 26 1019 0 8.6 16.3 18.7 48.0 32.8 109.6
Low Isles 27 12:30 28.3 63 17.42 20.8 20 24 1016.8 0 37.3 35.8 67.1 177.5 192.8 669.8
Lucinda 27 12:30 26.4 71 17.67 20.7 6 7 1016.7 0 38.0 37.1 69.9 184.8 201.3 699.2
Mackay 27 12:30 25.7 69 16.52 19.6 17 28 1018.3 0 35.6 35.4 65.5 173.1 186.6 648.0
Mackay Airport 27 12:30 25.8 65 15.65 18.7 30 37 1018.3 0 33.8 33.8 61.7 162.9 174.0 604.2
Mackay Racecourse 27 12:30 25.8 67 16.13 19.4 22 33 1013.1 0 34.8 34.5 63.4 167.6 180.1 625.4
Mareeba 27 12:30 29.6 24 7.12 6.9 19 37 1015.5 0 15.8 19.9 28.2 73.6 65.4 224.6
Maryborough 27 12:30 24.4 16 3.56 -3 9 13 1019.4 0 8.6 16.7 19.2 49.3 33.6 112.1
Middle Percy Island 27 12:30 22.9 62 12.67 15.2 28 37 1019.1 0 27.7 29.9 51.3 135.3 139.2 482.2
Miles 27 12:30 21.1 19 3.5 -3.4 13 28 1021.3 0 8.6 17.3 19.8 50.9 34.5 114.7
Mitchell 27 09:00 16.4 33 4.61 0.3 4 1024.2 0 11.0 19.7 24.6 63.7 48.5 163.5
Monto Township 27 09:00 17.5 57 8.5 8.9 4 1013.1 0 19.2 24.7 37.6 98.7 92.6 318.6
Moranbah Airport 27 12:30 29.8 18 5.4 2.9 17 26 1017.1 0 12.3 17.9 23.0 59.8 48.4 164.9
Mornington Island Airport 27 12:30 33.5 44 16.09 19.9 15 24 1014.2 0 34.1 31.5 57.4 151.7 162.7 565.5
Mount Isa 27 12:30 29.2 13 3.78 -2 11 20 1017.6 0 9.0 16.1 18.7 48.1 33.7 112.9
Mount Stuart (Defence) 27 12:30 30.9 35 11.14 13.7 17 24 1013.1 0 24.0 24.9 40.7 107.2 107.3 371.6
Nambour 27 12:30 23.6 20 4.25 -0.6 9 17 1019.4 0 10.1 17.7 21.4 55.2 40.7 136.8
New May Downs 27 12:30 28.9 12 3.43 -3.3 11 19 1013.1 0 8.3 15.7 17.7 45.5 30.6 101.8
Normanton 27 12:30 36.4 19 8.08 9.1 11 20 1013.5 0 17.5 19.7 28.7 75.2 69.3 239.0
Oakey 27 12:30 20.7 20 3.6 -3 28 41 1020.4 0 8.8 17.5 20.1 51.9 35.6 118.6
Palmerville 27 12:30 36.4 17 7.23 7.4 17 30 1013.1 0 15.8 18.6 26.3 68.6 61.2 210.6
Portable Qfrf Cr 27 12:00 28.1 17 4.65 1.1 7 11 1013.1 0 10.8 17.2 21.2 55.0 42.1 142.3
Portable Qfrg Nr 27 12:20 31.8 37 12.36 15.5 7 11 1013.1 0 26.5 26.4 44.5 117.4 120.1 416.5
Portable Qfri (Inglewood) 27 12:20 19.3 18 2.99 -5.2 15 26 1013.1 0 7.6 16.8 18.4 47.4 29.9 98.4
Portable Qfrj (North Tamborine) 27 12:20 18.1 17 2.63 -7.2 11 15 1013.1 0 6.9 16.5 17.6 45.2 26.8 87.3
Portable Qfrk (Ravenshoe) 27 12:20 25.4 47 11.06 13.3 20 26 1013.1 0 24.2 26.4 43.3 113.9 113.9 394.3
Portable Qfrl (Mt Fox) 27 12:20 27.3 45 11.78 14.4 11 15 1013.1 0 25.6 26.9 44.9 118.3 119.9 415.5
Proserpine 27 12:30 27.5 51 13.49 16.5 24 33 1017.4 0 29.1 29.6 51.5 135.9 141.5 490.8
Rainbow Beach 27 09:00 18.2 43 6.68 5.4 4 1022.1 0 15.3 22.1 31.0 80.9 70.5 241.2
Redcliffe 27 12:30 20.9 22 4.01 -1.6 19 22 1019.8 0 9.7 17.9 21.3 55.0 39.6 132.7
Redland (Alexandra Hills) 27 12:30 21.5 20 3.77 -2.4 13 22 1013.1 0 9.1 17.3 20.3 52.3 36.7 122.6
Richmond 27 12:30 33.3 13 4.7 1.2 11 19 1015.6 0 10.7 16.4 20.2 52.3 40.1 135.9
Rockhampton 27 12:30 26.9 20 5.12 2.1 11 19 1018.8 0 11.8 18.1 23.1 59.8 47.5 161.1
Rolleston Airport 27 12:30 25.1 14 3.24 -4.2 9 15 1019.4 0 8.0 16.2 18.1 46.5 30.4 100.7
Roma 27 12:30 21 15 2.75 -6.6 13 24 1021.3 0 7.1 16.4 17.6 45.1 27.2 89.1
Samuel Hill 27 12:30 23.9 42 9.09 10.2 19 30 1019.4 0 20.1 24.1 37.1 97.3 92.7 319.9
Sandy Cape 27 09:00 21.2 46 8.52 9.2 0 1021.2 0 19.1 24.0 36.3 95.2 89.2 307.1
Scherger 27 12:30 34.8 32 12.53 16.1 17 32 1012.4 0 26.7 25.8 43.5 114.7 117.5 407.9
Seventeen Seventy 27 09:00 21 29 5.31 2.5 22 1021.1 0 12.4 19.6 25.4 66.0 53.1 180.2
South Johnstone 27 12:30 28.4 80 22.24 24.6 6 15 1017 0 47.4 44.7 89.3 236.3 265.1 921.2
Springsure 27 09:00 19.2 21 3.46 -3.6 7 1013.1 0 8.6 17.3 19.9 51.2 34.6 115.0
St George 27 12:30 19.5 22 3.69 -2.8 17 28 1022.2 0 9.0 17.8 20.8 53.5 37.1 123.7
St Lawrence 27 12:30 27.1 39 10.09 12.3 19 24 1018.2 0 22.1 24.6 39.1 102.8 100.5 347.4
Stanthorpe 27 09:00 12.3 43 4.67 0.1 1013.1 0 11.3 20.3 25.7 66.6 51.2 172.6
Sunshine Coast Airport 27 12:30 20.4 26 4.6 0.3 20 26 1019.8 0 10.9 18.8 23.3 60.3 45.9 154.9
Surat 27 09:00 17.1 29 4.22 -1.1 6 1013.1 0 10.2 18.7 22.8 58.9 43.4 145.8
Sweers Island 27 09:00 27.7 41 10.97 13.4 24 1015.3 0 23.9 25.6 41.8 110.1 109.8 380.1
Tambo 27 09:00 17.3 68 10.02 11.3 4 1021.9 0 22.4 27.5 44.1 115.8 113.2 390.7
Taroom 27 09:00 18 24 3.69 -2.5 13 1023.2 0 9.1 18.2 21.2 54.5 37.8 126.0
Tewantin 27 12:30 20.8 32 5.79 3.5 13 20 1020 0 13.4 20.2 27.0 70.2 58.3 198.6
Texas 27 09:00 14.5 34 4.23 -0.9 9 1013.1 0 10.3 19.2 23.5 60.9 44.9 150.9
Thargomindah 27 12:30 18.9 25 4.05 -1.5 11 24 1023.3 0 9.8 18.5 22.1 56.9 41.1 137.8
The Monument 27 12:30 25.9 14 3.39 -3.6 17 28 1019 0 8.3 16.3 18.3 47.1 31.5 104.6
Tin Can Bay (Defence) 27 12:30 23.4 20 4.21 -0.8 6 13 1013.1 0 10.0 17.5 21.1 54.6 40.1 135.0
Toowoomba 27 12:30 18.1 19 2.94 -5.9 24 33 1020.5 0 7.5 17.1 18.8 48.1 30.0 98.7
Townsville 27 12:30 29.4 60 17.62 20.8 20 26 1016.5 0 37.6 35.7 67.0 177.2 192.8 670.0
Townsville - Fanning River (Defence) 27 12:30 32 23 7.77 8.3 7 19 1015.7 0 17.0 20.3 29.4 76.8 70.1 241.2
Townsville Air Weapons Range (Defence) 27 12:30 31.5 28 9.21 10.8 15 28 1013.1 0 20.0 22.1 34.0 89.2 85.3 294.6
Trepell 27 12:30 26.8 13 3.31 -3.9 17 26 1018.8 0 8.1 16.0 17.9 46.0 30.4 100.9
Urandangi 27 12:30 29.2 11 3.19 -4.3 17 24 1018.8 0 7.8 15.5 17.1 43.9 28.5 94.4
Warwick 27 12:30 19.8 22 3.76 -2.5 19 39 1019.7 0 9.2 17.8 20.8 53.7 37.6 125.5
Weipa 27 12:30 34.3 29 11.06 14.2 28 46 1012.1 0 23.7 23.9 38.8 102.1 101.9 353.1
Wellcamp Airport 27 12:30 20.2 20 3.5 -3.4 20 35 1019.7 0 8.6 17.4 19.9 51.3 34.8 115.7
Williamson 27 12:30 26.5 39 9.76 11.4 19 32 1018.3 0 21.4 24.3 38.2 100.4 97.4 336.5
Willis Island 27 12:30 28.7 66 18.65 21.7 28 33 1015.9 0 39.8 37.8 72.1 190.8 209.2 727.2
Windorah 27 12:30 22.1 16 3.12 -4.9 17 26 1021 0 7.8 16.7 18.4 47.3 30.4 100.3
Winton 27 12:30 28.2 11 3.02 -5 11 30 1018.3 0 7.4 15.5 16.8 43.2 27.3 90.2
Woolshed 27 12:30 27.9 37 10.01 11.9 9 19 1016.5 0 21.8 24.2 38.4 100.8 98.4 340.3
Yeppoon 27 12:30 23.1 43 8.89 9.8 22 30 1019.8 0 19.7 24.0 36.8 96.4 91.3 314.9

Last Refresh: 27-Sep-2020 12:11:49

The information presented on this site is sourced from the Bureau of Meteorology.  Copyright in all material sourced from the Bureau of Meteorology resides with the Commonwealth of Australia.